createdAt,value
2022-10-29T00:00:20.259Z,101574.53
2022-10-29T00:00:42.296Z,101578.97
2022-10-29T00:01:05.077Z,101575.41
2022-10-29T00:01:26.778Z,101578.09
2022-10-29T00:01:48.533Z,101569.22
2022-10-29T00:02:10.260Z,101570.88
2022-10-29T00:02:31.955Z,101580.69
2022-10-29T00:02:53.696Z,101577.03
2022-10-29T00:03:16.335Z,101566.13
2022-10-29T00:03:38.321Z,101578.69
2022-10-29T00:03:59.929Z,101576.28
2022-10-29T00:04:21.777Z,101565.63
2022-10-29T00:04:44.328Z,101571.91
2022-10-29T00:05:06.424Z,101573.75
2022-10-29T00:05:28.097Z,101574.72
2022-10-29T00:06:01.836Z,101575.56
2022-10-29T00:06:23.494Z,101570.09
2022-10-29T00:06:45.126Z,101571.81
2022-10-29T00:07:06.787Z,101572.56
2022-10-29T00:07:29.372Z,101573.44
2022-10-29T00:07:51.033Z,101563.53
2022-10-29T00:08:12.734Z,101565.34
2022-10-29T00:08:36.652Z,101556.50
2022-10-29T00:08:59.290Z,101563.72
2022-10-29T00:09:20.856Z,101561.09
2022-10-29T00:09:42.442Z,101564.59
2022-10-29T00:10:04.719Z,101567.09
2022-10-29T00:10:26.631Z,101570.66
2022-10-29T00:10:49.263Z,101559.06
2022-10-29T00:11:13.227Z,101574.25
2022-10-29T00:11:34.797Z,101559.94
2022-10-29T00:11:57.398Z,101565.19
2022-10-29T00:12:19.110Z,101566.91
2022-10-29T00:12:40.780Z,101567.00
2022-10-29T00:13:03.014Z,101570.56
2022-10-29T00:13:24.812Z,101568.75
2022-10-29T00:13:48.606Z,101562.84
2022-10-29T00:14:10.295Z,101571.75
2022-10-29T00:14:33.360Z,101572.78
2022-10-29T00:14:55.003Z,101571.91
2022-10-29T00:15:16.681Z,101572.78
2022-10-29T00:15:41.661Z,101577.22
2022-10-29T00:16:08.386Z,101575.56
2022-10-29T00:16:35.219Z,101577.53
2022-10-29T00:16:57.107Z,101573.94
2022-10-29T00:17:19.826Z,101572.28
2022-10-29T00:17:41.542Z,101571.63
2022-10-29T00:18:03.236Z,101568.16
2022-10-29T00:18:24.886Z,101567.09
2022-10-29T00:18:47.835Z,101572.56
2022-10-29T00:19:09.612Z,101566.41
2022-10-29T00:19:31.302Z,101572.56
2022-10-29T00:19:52.966Z,101579.81
2022-10-29T00:20:15.618Z,101571.69
2022-10-29T00:20:37.310Z,101571.63
2022-10-29T00:21:02.853Z,101575.19
2022-10-29T00:21:25.994Z,101577.22
2022-10-29T00:21:50.893Z,101580.88
2022-10-29T00:22:12.544Z,101579.13
2022-10-29T00:22:34.247Z,101588.19
2022-10-29T00:22:56.319Z,101580.09
2022-10-29T00:23:20.110Z,101580.09
2022-10-29T00:23:43.192Z,101575.69
2022-10-29T00:24:05.810Z,101583.78
2022-10-29T00:24:27.404Z,101573.94
2022-10-29T00:24:49.088Z,101581.16
2022-10-29T00:25:10.648Z,101577.66
2022-10-29T00:25:33.166Z,101576.03
2022-10-29T00:25:56.514Z,101575.16
2022-10-29T00:26:20.523Z,101581.44
2022-10-29T00:26:43.163Z,101573.44
2022-10-29T00:27:04.738Z,101573.34
2022-10-29T00:27:26.351Z,101575.25
2022-10-29T00:27:47.957Z,101577.09
2022-10-29T00:28:09.548Z,101578.91
2022-10-29T00:28:32.556Z,101572.56
2022-10-29T00:28:55.964Z,101575.25
2022-10-29T00:29:17.567Z,101577.00
2022-10-29T00:29:40.568Z,101577.94
2022-10-29T00:30:02.174Z,101581.44
2022-10-29T00:30:24.684Z,101579.69
2022-10-29T00:30:46.228Z,101580.56
2022-10-29T00:31:11.615Z,101581.44
2022-10-29T00:31:33.629Z,101576.13
2022-10-29T00:31:56.316Z,101577.94
2022-10-29T00:32:17.984Z,101577.88
2022-10-29T00:32:39.577Z,101578.66
2022-10-29T00:37:04.595Z,101585.06
2022-10-29T00:37:26.302Z,101582.53
2022-10-29T00:37:48.260Z,101571.91
2022-10-29T00:38:10.027Z,101576.72
2022-10-29T00:38:33.605Z,101576.72
2022-10-29T00:38:56.935Z,101579.41
2022-10-29T00:39:18.757Z,101582.19
2022-10-29T00:39:40.359Z,101574.09
2022-10-29T00:40:03.114Z,101577.66
2022-10-29T00:40:24.689Z,101570.63
2022-10-29T00:40:46.459Z,101574.09
2022-10-29T00:41:12.134Z,101575.75
2022-10-29T00:41:33.819Z,101577.66
2022-10-29T00:41:55.721Z,101571.31
2022-10-29T00:42:18.091Z,101578.44
2022-10-29T00:42:40.983Z,101575.84
2022-10-29T00:43:12.878Z,101576.53
2022-10-29T00:43:36.584Z,101576.63
2022-10-29T00:44:28.823Z,101577.50
2022-10-29T00:44:51.766Z,101582.78
2022-10-29T00:45:20.971Z,101572.09
2022-10-29T00:45:48.870Z,101582.78
2022-10-29T00:46:15.310Z,101577.50
2022-10-29T00:47:04.786Z,101584.72
2022-10-29T00:47:41.228Z,101571.31
2022-10-29T00:48:20.551Z,101569.69
2022-10-29T00:48:51.118Z,101579.31
2022-10-29T00:49:28.609Z,101546.19
2022-10-29T00:50:10.209Z,101567.25
2022-10-29T00:50:43.043Z,101568.28
2022-10-29T00:51:15.038Z,101546.47
2022-10-29T00:51:41.132Z,101556.91
2022-10-29T00:52:25.367Z,101568.38
2022-10-29T00:53:04.728Z,101568.56
2022-10-29T00:53:42.567Z,101564.47
2022-10-29T00:54:20.955Z,101585.28
2022-10-29T00:54:55.380Z,101565.09
2022-10-29T00:55:27.806Z,101570.47
2022-10-29T00:55:57.301Z,101586.91
2022-10-29T00:56:41.240Z,101560.56
2022-10-29T00:57:14.268Z,101581.22
2022-10-29T00:57:57.408Z,101560.47
2022-10-29T00:58:24.460Z,101570.91
2022-10-29T00:58:56.670Z,101573.25
2022-10-29T00:59:23.553Z,101558.38
2022-10-29T00:59:53.648Z,101580.28
2022-10-29T01:00:31.388Z,101555.75
2022-10-29T01:01:05.820Z,101569.75
2022-10-29T01:01:39.628Z,101575.25
2022-10-29T01:02:49.091Z,101541.34
2022-10-29T01:03:15.712Z,101576.97
2022-10-29T01:03:43.717Z,101557.09
2022-10-29T01:04:13.133Z,101559.59
2022-10-29T01:04:42.461Z,101541.53
2022-10-29T01:05:44.869Z,101555.44
2022-10-29T01:06:17.157Z,101551.09
2022-10-29T01:07:05.143Z,101548.56
2022-10-29T01:07:31.622Z,101553.69
2022-10-29T01:07:55.355Z,101579.97
2022-10-29T01:08:17.234Z,101565.88
2022-10-29T01:08:38.945Z,101573.78
2022-10-29T01:09:00.603Z,101570.41
2022-10-29T01:09:22.246Z,101579.28
2022-10-29T01:09:45.107Z,101574.84
2022-10-29T01:10:08.132Z,101573.19
2022-10-29T01:10:40.709Z,101570.59
2022-10-29T01:11:13.659Z,101573.44
2022-10-29T01:11:42.498Z,101574.44
2022-10-29T01:12:29.556Z,101576.25
2022-10-29T01:13:10.342Z,101569.88
2022-10-29T01:13:43.782Z,101562.66
2022-10-29T01:14:18.259Z,101569.03
2022-10-29T01:14:53.480Z,101565.53
2022-10-29T01:15:23.418Z,101564.69
2022-10-29T01:15:58.340Z,101571.03
2022-10-29T01:16:30.996Z,101565.75
2022-10-29T01:17:00.047Z,101561.19
2022-10-29T01:17:31.242Z,101558.41
2022-10-29T01:18:04.657Z,101563.03
2022-10-29T01:18:41.674Z,101558.88
2022-10-29T01:19:31.047Z,101542.38
2022-10-29T01:20:36.058Z,101550.34
2022-10-29T01:21:40.780Z,101545.16
2022-10-29T01:22:20.995Z,101544.72
2022-10-29T01:23:17.104Z,101559.50
2022-10-29T01:26:08.758Z,101537.31
2022-10-29T01:27:23.328Z,101537.88
2022-10-29T01:28:25.825Z,101556.19
2022-10-29T01:29:12.663Z,101539.84
2022-10-29T01:30:04.385Z,101557.16
2022-10-29T01:30:55.770Z,101548.00
2022-10-29T01:31:40.331Z,101539.59
2022-10-29T01:33:31.133Z,101560.91
2022-10-29T01:34:08.863Z,101557.06
2022-10-29T01:34:48.523Z,101541.44
2022-10-29T01:35:58.385Z,101544.28
2022-10-29T01:36:36.502Z,101540.72
2022-10-29T01:37:19.735Z,101546.13
2022-10-29T01:38:17.347Z,101563.41
2022-10-29T01:39:06.681Z,101567.88
2022-10-29T01:39:37.600Z,101564.22
2022-10-29T01:40:12.353Z,101572.31
2022-10-29T01:40:38.992Z,101567.06
2022-10-29T01:41:07.763Z,101565.16
2022-10-29T01:41:40.824Z,101573.16
2022-10-29T01:42:13.141Z,101568.81
2022-10-29T01:42:39.002Z,101566.78
2022-10-29T01:43:06.737Z,101572.13
2022-10-29T01:43:35.410Z,101564.97
2022-10-29T01:44:06.127Z,101563.94
2022-10-29T01:44:35.735Z,101563.94
2022-10-29T01:45:08.127Z,101569.41
2022-10-29T01:45:36.601Z,101567.50
2022-10-29T01:46:02.497Z,101564.91
2022-10-29T01:46:31.482Z,101571.91
2022-10-29T01:47:00.529Z,101566.53
2022-10-29T01:47:34.637Z,101571.91
2022-10-29T01:47:59.414Z,101574.63
2022-10-29T01:48:33.015Z,101564.63
2022-10-29T01:48:59.120Z,101568.19
2022-10-29T01:49:26.852Z,101568.13
2022-10-29T01:49:51.714Z,101568.94
2022-10-29T01:50:18.051Z,101571.50
2022-10-29T01:50:44.938Z,101559.03
2022-10-29T01:51:14.370Z,101559.16
2022-10-29T01:51:38.848Z,101563.69
2022-10-29T01:52:04.342Z,101558.16
2022-10-29T01:52:30.988Z,101556.25
2022-10-29T01:52:54.433Z,101556.19
2022-10-29T01:53:17.201Z,101555.22
2022-10-29T01:53:41.526Z,101543.56
2022-10-29T01:54:07.608Z,101550.41
2022-10-29T01:54:29.551Z,101552.53
2022-10-29T01:54:51.595Z,101540.16
2022-10-29T01:55:16.773Z,101545.47
2022-10-29T01:55:39.923Z,101549.13
2022-10-29T01:56:01.778Z,101545.53
2022-10-29T01:56:23.394Z,101541.91
2022-10-29T01:56:54.964Z,101539.13
2022-10-29T01:57:32.037Z,101538.34
2022-10-29T01:57:55.612Z,101545.38
2022-10-29T01:58:19.263Z,101533.72
2022-10-29T01:58:47.191Z,101538.25
2022-10-29T01:59:23.282Z,101543.03
2022-10-29T01:59:59.895Z,101525.94
2022-10-29T02:00:22.360Z,101539.16
2022-10-29T02:00:52.460Z,101541.84
2022-10-29T02:01:29.539Z,101528.38
2022-10-29T02:02:01.788Z,101536.19
2022-10-29T02:02:31.330Z,101537.06
2022-10-29T02:03:05.927Z,101540.63
2022-10-29T02:03:37.926Z,101535.97
2022-10-29T02:04:15.731Z,101534.88
2022-10-29T02:05:00.891Z,101536.69
2022-10-29T02:05:31.874Z,101529.38
2022-10-29T02:06:05.095Z,101533.06
2022-10-29T02:06:36.652Z,101534.75
2022-10-29T02:07:06.512Z,101525.72
2022-10-29T02:07:42.994Z,101531.19
2022-10-29T02:08:18.214Z,101529.38
2022-10-29T02:08:47.979Z,101520.31
2022-10-29T02:09:17.928Z,101526.50
2022-10-29T02:09:44.309Z,101523.97
2022-10-29T02:10:13.350Z,101531.03
2022-10-29T02:10:44.621Z,101521.28
2022-10-29T02:11:12.076Z,101521.19
2022-10-29T02:11:42.655Z,101532.84
2022-10-29T02:12:15.658Z,101523.00
2022-10-29T02:12:44.341Z,101523.00
2022-10-29T02:13:10.167Z,101522.94
2022-10-29T02:13:38.194Z,101526.78
2022-10-29T02:14:04.612Z,101522.16
2022-10-29T02:14:32.668Z,101523.81
2022-10-29T02:14:59.510Z,101522.16
2022-10-29T02:15:27.565Z,101522.06
2022-10-29T02:15:53.678Z,101517.69
2022-10-29T02:16:16.926Z,101519.38
2022-10-29T02:16:38.908Z,101518.78
2022-10-29T02:17:04.104Z,101519.56
2022-10-29T02:17:26.190Z,101525.78
2022-10-29T02:17:47.954Z,101522.94
2022-10-29T02:18:09.946Z,101519.44
2022-10-29T02:18:31.885Z,101517.53
2022-10-29T02:18:54.597Z,101520.16
2022-10-29T02:19:16.496Z,101514.75
2022-10-29T02:19:38.275Z,101526.38
2022-10-29T02:20:04.061Z,101522.25
2022-10-29T02:20:26.790Z,101510.75
2022-10-29T02:21:01.152Z,101509.13
2022-10-29T02:21:42.700Z,101496.00
2022-10-29T02:22:13.388Z,101507.78
2022-10-29T02:22:45.463Z,101516.75
2022-10-29T02:23:40.017Z,101491.75
2022-10-29T02:24:19.538Z,101492.50
2022-10-29T02:24:54.617Z,101494.63
2022-10-29T02:26:38.935Z,101509.72
2022-10-29T02:27:21.597Z,101517.03
2022-10-29T02:28:49.019Z,101491.75
2022-10-29T02:30:20.151Z,101470.19
2022-10-29T02:30:59.148Z,101504.09
2022-10-29T02:31:22.982Z,101516.63
2022-10-29T02:31:44.934Z,101513.72
2022-10-29T02:32:08.152Z,101506.59
2022-10-29T02:32:29.737Z,101517.22
2022-10-29T02:32:51.342Z,101521.06
2022-10-29T02:33:14.055Z,101519.13
2022-10-29T02:33:36.008Z,101516.34
2022-10-29T02:33:57.742Z,101518.09
2022-10-29T02:34:19.522Z,101520.00
2022-10-29T02:34:42.070Z,101520.88
2022-10-29T02:35:04.482Z,101522.78
2022-10-29T02:35:26.149Z,101520.00
2022-10-29T02:35:47.777Z,101530.72
2022-10-29T02:36:10.772Z,101524.53
2022-10-29T02:36:32.429Z,101527.22
2022-10-29T02:36:54.038Z,101527.28
2022-10-29T02:37:15.680Z,101523.75
2022-10-29T02:37:37.673Z,101530.97
2022-10-29T02:38:00.610Z,101521.91
2022-10-29T02:38:22.204Z,101518.25
2022-10-29T02:38:43.857Z,101516.91
2022-10-29T02:39:05.734Z,101528.28
2022-10-29T02:39:28.527Z,101527.28
2022-10-29T02:39:50.185Z,101528.09
2022-10-29T02:40:13.223Z,101524.72
2022-10-29T02:40:34.847Z,101522.00
2022-10-29T02:40:56.534Z,101523.91
2022-10-29T02:41:19.153Z,101519.22
2022-10-29T02:41:40.755Z,101522.97
2022-10-29T02:42:03.166Z,101528.28
2022-10-29T02:42:24.959Z,101523.06
2022-10-29T02:42:47.534Z,101525.94
2022-10-29T02:43:09.289Z,101519.59
2022-10-29T02:43:30.946Z,101520.34
2022-10-29T02:43:52.791Z,101523.25
2022-10-29T02:44:14.483Z,101524.88
2022-10-29T02:44:37.110Z,101521.41
2022-10-29T02:44:58.753Z,101519.59
2022-10-29T02:45:20.313Z,101520.63
2022-10-29T02:45:41.966Z,101517.94
2022-10-29T02:46:10.691Z,101517.84
2022-10-29T02:46:35.982Z,101509.16
2022-10-29T02:46:57.695Z,101516.19
2022-10-29T02:47:20.678Z,101512.53
2022-10-29T02:47:42.344Z,101512.72
2022-10-29T02:48:05.507Z,101512.53
2022-10-29T02:48:27.273Z,101515.41
2022-10-29T02:48:49.844Z,101512.72
2022-10-29T02:49:11.442Z,101513.59
2022-10-29T02:49:34.057Z,101509.06
2022-10-29T02:49:55.769Z,101504.56
2022-10-29T02:50:17.602Z,101510.78
2022-10-29T02:50:39.203Z,101509.06
2022-10-29T02:51:00.810Z,101507.34
2022-10-29T02:51:23.647Z,101519.16
2022-10-29T02:51:45.541Z,101506.69
2022-10-29T02:52:07.392Z,101512.03
2022-10-29T02:52:29.079Z,101512.03
2022-10-29T02:52:51.710Z,101514.78
2022-10-29T02:53:13.370Z,101511.16
2022-10-29T02:53:35.152Z,101513.88
2022-10-29T02:53:56.841Z,101512.97
2022-10-29T02:54:18.468Z,101498.97
2022-10-29T02:54:41.141Z,101511.06
2022-10-29T02:55:02.795Z,101513.91
2022-10-29T02:55:24.586Z,101514.09
2022-10-29T02:55:46.197Z,101517.47
2022-10-29T02:56:08.619Z,101510.28
2022-10-29T02:56:31.416Z,101515.66
2022-10-29T02:56:53.061Z,101513.91
2022-10-29T02:57:14.766Z,101516.56
2022-10-29T02:57:36.378Z,101519.31
2022-10-29T02:57:59.145Z,101512.09
2022-10-29T02:58:43.364Z,101513.91
2022-10-29T02:59:07.715Z,101514.00
2022-10-29T02:59:33.940Z,101513.31
2022-10-29T02:59:55.537Z,101515.75
2022-10-29T03:00:17.839Z,101514.09
2022-10-29T03:00:39.443Z,101515.75
2022-10-29T03:01:01.714Z,101505.91
2022-10-29T03:01:24.542Z,101504.09
2022-10-29T03:01:46.355Z,101510.34
2022-10-29T03:02:08.445Z,101513.03
2022-10-29T03:02:31.665Z,101511.16
2022-10-29T03:02:53.634Z,101507.84
2022-10-29T03:03:16.669Z,101507.13
2022-10-29T03:03:38.827Z,101515.13
2022-10-29T03:04:00.805Z,101508.00
2022-10-29T03:04:23.839Z,101507.25
2022-10-29T03:04:47.591Z,101512.63
2022-10-29T03:05:09.746Z,101513.66
2022-10-29T03:05:31.635Z,101509.34
2022-10-29T03:05:53.658Z,101508.47
2022-10-29T03:06:18.135Z,101506.78
2022-10-29T03:06:41.455Z,101514.88
2022-10-29T03:07:03.616Z,101512.19
2022-10-29T03:07:26.842Z,101510.38
2022-10-29T03:07:48.471Z,101515.00
2022-10-29T03:08:10.155Z,101504.09
2022-10-29T03:08:31.783Z,101513.94
2022-10-29T03:08:54.623Z,101506.78
2022-10-29T03:09:16.299Z,101506.72
2022-10-29T03:09:38.742Z,101509.34
2022-10-29T03:10:04.428Z,101504.88
2022-10-29T03:10:27.677Z,101511.22
2022-10-29T03:10:49.798Z,101505.75
2022-10-29T03:11:12.287Z,101506.78
2022-10-29T03:11:34.023Z,101510.56
2022-10-29T03:11:55.939Z,101504.97
2022-10-29T03:12:18.651Z,101505.91
2022-10-29T03:12:40.530Z,101505.91
2022-10-29T03:13:02.297Z,101496.38
2022-10-29T03:13:24.256Z,101508.88
2022-10-29T03:13:45.875Z,101505.44
2022-10-29T03:14:08.384Z,101509.41
2022-10-29T03:14:30.125Z,101503.88
2022-10-29T03:14:51.879Z,101503.75
2022-10-29T03:15:13.466Z,101509.06
2022-10-29T03:15:35.080Z,101503.69
2022-10-29T03:15:57.715Z,101500.38
2022-10-29T03:16:19.616Z,101499.34
2022-10-29T03:16:41.209Z,101506.63
2022-10-29T03:17:03.054Z,101499.59
2022-10-29T03:17:24.970Z,101507.66
2022-10-29T03:17:49.229Z,101498.56
2022-10-29T03:18:11.173Z,101499.50
2022-10-29T03:18:32.745Z,101501.59
2022-10-29T03:18:54.567Z,101503.75
2022-10-29T03:19:17.302Z,101499.84
2022-10-29T03:19:38.922Z,101509.94
2022-10-29T03:20:00.775Z,101505.25
2022-10-29T03:20:22.694Z,101503.53
2022-10-29T03:20:45.396Z,101504.38
2022-10-29T03:21:08.222Z,101506.97
2022-10-29T03:21:29.904Z,101505.16
2022-10-29T03:21:51.514Z,101504.56
2022-10-29T03:22:14.208Z,101495.53
2022-10-29T03:22:36.359Z,101496.47
2022-10-29T03:22:58.115Z,101499.16
2022-10-29T03:23:20.002Z,101506.38
2022-10-29T03:23:41.698Z,101486.03
2022-10-29T03:24:04.874Z,101499.84
2022-10-29T03:24:26.659Z,101501.66
2022-10-29T03:24:48.367Z,101500.72
2022-10-29T03:25:10.337Z,101499.78
2022-10-29T03:25:32.183Z,101490.06
2022-10-29T03:25:56.671Z,101492.63
2022-10-29T03:26:18.473Z,101490.75
2022-10-29T03:26:40.116Z,101488.19
2022-10-29T03:27:02.791Z,101494.38
2022-10-29T03:27:24.383Z,101483.94
2022-10-29T03:27:46.758Z,101489.19
2022-10-29T03:28:08.783Z,101487.50
2022-10-29T03:28:32.047Z,101486.63
2022-10-29T03:28:55.468Z,101485.78
2022-10-29T03:29:17.352Z,101484.13
2022-10-29T03:29:39.002Z,101480.66
2022-10-29T03:30:00.764Z,101486.03
2022-10-29T03:30:23.791Z,101478.81
2022-10-29T03:30:45.547Z,101481.38
2022-10-29T03:31:07.187Z,101483.06
2022-10-29T03:31:29.055Z,101478.75
2022-10-29T03:31:51.789Z,101480.56
2022-10-29T03:32:13.610Z,101483.34
2022-10-29T03:32:35.255Z,101484.31
2022-10-29T03:32:58.751Z,101462.41
2022-10-29T03:33:21.083Z,101476.41
2022-10-29T03:33:44.028Z,101475.53
2022-10-29T03:34:05.627Z,101472.75
2022-10-29T03:34:27.451Z,101469.25
2022-10-29T03:34:49.265Z,101464.94
2022-10-29T03:35:14.003Z,101466.50
2022-10-29T03:35:35.808Z,101469.09
2022-10-29T03:35:58.655Z,101465.47
2022-10-29T03:36:21.473Z,101468.16
2022-10-29T03:36:43.062Z,101460.84
2022-10-29T03:37:04.644Z,101461.63
2022-10-29T03:37:26.363Z,101467.19
2022-10-29T03:37:50.549Z,101470.66
2022-10-29T03:38:12.234Z,101467.97
2022-10-29T03:38:34.619Z,101461.63
2022-10-29T03:38:56.202Z,101458.16
2022-10-29T03:39:18.876Z,101457.00
2022-10-29T03:39:40.494Z,101453.44
2022-10-29T03:40:02.136Z,101465.97
2022-10-29T03:40:24.012Z,101461.53
2022-10-29T03:40:45.619Z,101464.31
2022-10-29T03:41:10.918Z,101470.66
2022-10-29T03:41:32.615Z,101463.53
2022-10-29T03:41:54.261Z,101466.31
2022-10-29T03:42:15.854Z,101473.53
2022-10-29T03:42:38.349Z,101469.97
2022-10-29T03:43:01.193Z,101467.38
2022-10-29T03:43:22.901Z,101472.56
2022-10-29T03:43:44.737Z,101468.06
2022-10-29T03:44:15.755Z,101460.91
2022-10-29T03:44:42.267Z,101465.34
2022-10-29T03:46:00.259Z,101449.97
2022-10-29T03:46:32.117Z,101454.31
2022-10-29T03:47:01.124Z,101469.09
2022-10-29T03:48:39.838Z,101441.03
2022-10-29T03:49:12.063Z,101444.78
2022-10-29T03:49:44.454Z,101467.38
2022-10-29T03:50:12.409Z,101468.16
2022-10-29T03:50:36.269Z,101464.59
2022-10-29T03:51:12.116Z,101451.47
2022-10-29T03:51:36.813Z,101450.78
2022-10-29T03:52:15.042Z,101482.66
2022-10-29T03:53:10.872Z,101461.72
2022-10-29T03:53:54.516Z,101473.53
2022-10-29T03:54:32.536Z,101475.44
2022-10-29T03:55:03.434Z,101458.06
2022-10-29T03:55:34.258Z,101479.97
2022-10-29T03:57:15.165Z,101470.25
2022-10-29T03:57:40.288Z,101475.72
2022-10-29T03:58:12.917Z,101464.13
2022-10-29T03:58:43.290Z,101455.72
2022-10-29T03:59:48.365Z,101462.75
2022-10-29T04:00:26.075Z,101455.03
2022-10-29T04:01:01.251Z,101461.78
2022-10-29T04:01:48.607Z,101470.31
2022-10-29T04:02:16.448Z,101439.84
2022-10-29T04:02:44.818Z,101468.38
2022-10-29T04:03:10.996Z,101469.44
2022-10-29T04:03:44.069Z,101471.00
2022-10-29T04:04:57.691Z,101466.06
2022-10-29T04:05:19.517Z,101469.72
2022-10-29T04:05:44.612Z,101465.97
2022-10-29T04:06:10.120Z,101466.75
2022-10-29T04:06:31.815Z,101472.13
2022-10-29T04:06:53.629Z,101467.69
2022-10-29T04:07:16.776Z,101471.34
2022-10-29T04:07:38.483Z,101475.34
2022-10-29T04:08:02.103Z,101476.22
2022-10-29T04:08:25.974Z,101471.72
2022-10-29T04:08:49.077Z,101481.44
2022-10-29T04:09:12.133Z,101475.03
2022-10-29T04:09:33.749Z,101470.47
2022-10-29T04:09:57.277Z,101475.09
2022-10-29T04:10:20.897Z,101469.44
2022-10-29T04:10:45.798Z,101474.84
2022-10-29T04:11:10.461Z,101477.53
2022-10-29T04:11:32.228Z,101478.31
2022-10-29T04:11:56.581Z,101471.09
2022-10-29T04:12:19.606Z,101473.69
2022-10-29T04:12:45.459Z,101475.38
2022-10-29T04:13:07.259Z,101469.25
2022-10-29T04:13:28.914Z,101476.25
2022-10-29T04:13:53.821Z,101474.50
2022-10-29T04:14:23.154Z,101479.00
2022-10-29T04:14:45.936Z,101472.56
2022-10-29T04:15:08.196Z,101479.78
2022-10-29T04:15:30.822Z,101482.56
2022-10-29T04:15:53.916Z,101474.66
2022-10-29T04:16:15.579Z,101474.50
2022-10-29T04:16:37.387Z,101472.75
2022-10-29T04:17:00.242Z,101469.09
2022-10-29T04:17:21.847Z,101472.56
2022-10-29T04:17:43.471Z,101462.66
2022-10-29T04:18:05.258Z,101453.28
2022-10-29T04:18:27.983Z,101467.97
2022-10-29T04:18:51.222Z,101468.16
2022-10-29T04:19:12.968Z,101469.88
2022-10-29T04:19:34.585Z,101473.34
2022-10-29T04:19:56.361Z,101476.06
2022-10-29T04:20:43.307Z,101474.31
2022-10-29T04:24:12.312Z,101482.13
2022-10-29T04:28:10.328Z,101475.88
2022-10-29T04:28:49.151Z,101481.19
2022-10-29T04:29:11.984Z,101474.03
2022-10-29T04:29:33.821Z,101481.19
2022-10-29T04:29:55.527Z,101478.56
2022-10-29T04:30:17.539Z,101482.19
2022-10-29T04:30:40.422Z,101474.13
2022-10-29T04:31:04.439Z,101474.13
2022-10-29T04:31:26.365Z,101484.06
2022-10-29T04:31:48.555Z,101475.97
2022-10-29T04:32:11.268Z,101474.13
2022-10-29T04:32:32.930Z,101482.19
2022-10-29T04:32:57.068Z,101479.50
2022-10-29T04:33:20.282Z,101472.28
2022-10-29T04:33:42.132Z,101475.88
2022-10-29T04:34:05.703Z,101468.66
2022-10-29T04:34:27.499Z,101463.34
2022-10-29T04:34:49.392Z,101473.09
2022-10-29T04:35:12.251Z,101465.97
2022-10-29T04:35:33.944Z,101459.53
2022-10-29T04:35:55.861Z,101456.84
2022-10-29T04:36:19.842Z,101456.84
2022-10-29T04:36:42.570Z,101453.16
2022-10-29T04:37:04.775Z,101441.72
2022-10-29T04:37:28.296Z,101445.09
2022-10-29T04:37:54.101Z,101442.31
2022-10-29T04:38:16.778Z,101439.88
2022-10-29T04:38:38.453Z,101434.50
2022-10-29T04:39:00.351Z,101437.13
2022-10-29T04:39:23.650Z,101440.69
2022-10-29T04:39:46.798Z,101440.69
2022-10-29T04:40:12.194Z,101430.78
2022-10-29T04:40:33.873Z,101429.03
2022-10-29T04:40:58.456Z,101427.38
2022-10-29T04:41:21.515Z,101427.38
2022-10-29T04:41:43.722Z,101416.50
2022-10-29T04:42:05.592Z,101421.97
2022-10-29T04:42:32.091Z,101420.22
2022-10-29T04:42:55.694Z,101414.84
2022-10-29T04:43:24.118Z,101412.16
2022-10-29T04:43:47.418Z,101407.91
2022-10-29T04:44:09.162Z,101408.50
2022-10-29T04:44:31.114Z,101397.84
2022-10-29T04:44:54.266Z,101395.03
2022-10-29T04:45:16.289Z,101393.22
2022-10-29T04:45:39.283Z,101384.25
2022-10-29T04:46:01.055Z,101371.75
2022-10-29T04:46:39.730Z,101362.03
2022-10-29T04:47:07.332Z,101370.72
2022-10-29T04:47:34.652Z,101352.47
2022-10-29T04:48:11.578Z,101365.00
2022-10-29T04:48:41.449Z,101357.19
2022-10-29T04:49:07.102Z,101360.75
2022-10-29T04:49:40.658Z,101385.47
2022-10-29T04:50:06.730Z,101392.13
2022-10-29T04:50:56.764Z,101414.75
2022-10-29T04:51:26.692Z,101418.88
2022-10-29T04:51:50.213Z,101424.44
2022-10-29T04:52:40.698Z,101465.28
2022-10-29T04:53:16.326Z,101462.94
2022-10-29T04:54:32.200Z,101447.56
2022-10-29T04:55:25.985Z,101456.94
2022-10-29T04:55:51.949Z,101447.63
2022-10-29T04:56:28.679Z,101464.25
2022-10-29T04:56:51.631Z,101454.22
2022-10-29T04:57:13.756Z,101452.34
2022-10-29T04:57:35.410Z,101444.78
2022-10-29T04:57:58.531Z,101452.47
2022-10-29T04:58:21.909Z,101439.97
2022-10-29T04:58:45.583Z,101447.16
2022-10-29T04:59:10.721Z,101440.69
2022-10-29T04:59:32.542Z,101440.59
2022-10-29T04:59:54.341Z,101439.56
2022-10-29T05:00:18.822Z,101440.25
2022-10-29T05:00:42.184Z,101429.84
2022-10-29T05:01:05.460Z,101436.78
2022-10-29T05:01:28.434Z,101426.00
2022-10-29T05:01:50.725Z,101430.34
2022-10-29T05:02:13.880Z,101421.31
2022-10-29T05:02:36.108Z,101424.78
2022-10-29T05:02:58.076Z,101426.44
2022-10-29T05:03:20.449Z,101421.91
2022-10-29T05:03:43.578Z,101420.16
2022-10-29T05:04:06.958Z,101427.38
2022-10-29T05:04:29.519Z,101415.56
2022-10-29T05:04:51.175Z,101420.78
2022-10-29T05:05:15.092Z,101422.69
2022-10-29T05:05:37.743Z,101423.47
2022-10-29T05:06:01.924Z,101414.44
2022-10-29T05:06:23.858Z,101416.19
2022-10-29T05:06:46.575Z,101423.38
2022-10-29T05:07:10.249Z,101423.31
2022-10-29T05:07:31.830Z,101417.03
2022-10-29T05:08:00.916Z,101418.94
2022-10-29T05:08:25.086Z,101410.97
2022-10-29T05:08:46.905Z,101416.25
2022-10-29T05:09:12.003Z,101407.41
2022-10-29T05:09:34.739Z,101405.47
2022-10-29T05:09:58.368Z,101406.34
2022-10-29T05:10:21.106Z,101403.72
2022-10-29T05:10:42.906Z,101403.66
2022-10-29T05:11:06.601Z,101399.06
2022-10-29T05:11:29.831Z,101407.16
2022-10-29T05:11:51.965Z,101403.56
2022-10-29T05:12:14.835Z,101403.66
2022-10-29T05:12:36.797Z,101408.09
2022-10-29T05:12:59.484Z,101398.47
2022-10-29T05:13:22.371Z,101399.13
2022-10-29T05:13:45.400Z,101403.66
2022-10-29T05:14:07.217Z,101394.72
2022-10-29T05:14:30.002Z,101403.66
2022-10-29T05:14:52.065Z,101398.28
2022-10-29T05:15:13.705Z,101393.84
2022-10-29T05:15:36.214Z,101399.41
2022-10-29T05:16:00.471Z,101400.97
2022-10-29T05:16:22.763Z,101403.72
2022-10-29T05:16:44.415Z,101397.59
2022-10-29T05:17:08.673Z,101401.22
2022-10-29T05:17:37.667Z,101400.44
2022-10-29T05:18:08.993Z,101401.22
2022-10-29T05:18:34.799Z,101387.63
2022-10-29T05:19:05.379Z,101381.47
2022-10-29T05:19:32.336Z,101377.16
2022-10-29T05:20:21.298Z,101391.94
2022-10-29T05:20:49.459Z,101372.91
2022-10-29T05:21:15.322Z,101379.16
2022-10-29T05:21:44.370Z,101374.72
2022-10-29T05:22:14.142Z,101393.88
2022-10-29T05:22:37.584Z,101406.63
2022-10-29T05:23:05.459Z,101395.84
2022-10-29T05:23:33.491Z,101405.69